sensor_id;sensor_type;location;lat;lon;timestamp;P1;durP1;ratioP1;P2;durP2;ratioP2
4517;SDS011;2271;49.464;11.070;2023-11-19T00:00:15;2.57;;;2.30;;
4517;SDS011;2271;49.464;11.070;2023-11-19T00:02:41;2.33;;;2.00;;
4517;SDS011;2271;49.464;11.070;2023-11-19T00:05:07;2.33;;;2.10;;
4517;SDS011;2271;49.464;11.070;2023-11-19T00:07:37;2.60;;;2.27;;
4517;SDS011;2271;49.464;11.070;2023-11-19T00:10:07;3.13;;;2.30;;
4517;SDS011;2271;49.464;11.070;2023-11-19T00:12:46;4.97;;;2.37;;
4517;SDS011;2271;49.464;11.070;2023-11-19T00:15:14;4.03;;;2.23;;
4517;SDS011;2271;49.464;11.070;2023-11-19T00:17:41;2.10;;;2.00;;
4517;SDS011;2271;49.464;11.070;2023-11-19T00:20:11;2.27;;;2.07;;
4517;SDS011;2271;49.464;11.070;2023-11-19T00:22:38;3.17;;;2.83;;
4517;SDS011;2271;49.464;11.070;2023-11-19T00:25:04;2.53;;;2.33;;
4517;SDS011;2271;49.464;11.070;2023-11-19T00:27:30;2.53;;;1.93;;
4517;SDS011;2271;49.464;11.070;2023-11-19T00:29:56;2.27;;;2.07;;
4517;SDS011;2271;49.464;11.070;2023-11-19T00:32:22;2.50;;;2.30;;
4517;SDS011;2271;49.464;11.070;2023-11-19T00:34:48;4.00;;;2.80;;
4517;SDS011;2271;49.464;11.070;2023-11-19T00:37:14;2.93;;;2.63;;
4517;SDS011;2271;49.464;11.070;2023-11-19T00:39:40;2.60;;;2.40;;
4517;SDS011;2271;49.464;11.070;2023-11-19T00:42:09;2.60;;;2.40;;
4517;SDS011;2271;49.464;11.070;2023-11-19T00:44:38;2.47;;;2.23;;
4517;SDS011;2271;49.464;11.070;2023-11-19T00:47:04;2.93;;;2.10;;
4517;SDS011;2271;49.464;11.070;2023-11-19T00:49:30;2.07;;;1.97;;
4517;SDS011;2271;49.464;11.070;2023-11-19T00:51:57;2.73;;;2.23;;
4517;SDS011;2271;49.464;11.070;2023-11-19T00:54:24;2.53;;;2.23;;
4517;SDS011;2271;49.464;11.070;2023-11-19T00:56:50;2.83;;;2.53;;
4517;SDS011;2271;49.464;11.070;2023-11-19T00:59:20;3.17;;;2.60;;
4517;SDS011;2271;49.464;11.070;2023-11-19T01:01:46;2.37;;;2.17;;
4517;SDS011;2271;49.464;11.070;2023-11-19T01:04:16;3.20;;;2.43;;
4517;SDS011;2271;49.464;11.070;2023-11-19T01:06:42;2.50;;;2.30;;
4517;SDS011;2271;49.464;11.070;2023-11-19T01:09:07;3.40;;;2.63;;
4517;SDS011;2271;49.464;11.070;2023-11-19T01:11:34;3.40;;;2.77;;
4517;SDS011;2271;49.464;11.070;2023-11-19T01:14:00;3.60;;;2.63;;
4517;SDS011;2271;49.464;11.070;2023-11-19T01:16:26;3.20;;;2.20;;
4517;SDS011;2271;49.464;11.070;2023-11-19T01:18:51;3.03;;;2.27;;
4517;SDS011;2271;49.464;11.070;2023-11-19T01:21:17;2.77;;;2.57;;
4517;SDS011;2271;49.464;11.070;2023-11-19T01:23:43;5.67;;;2.40;;
4517;SDS011;2271;49.464;11.070;2023-11-19T01:26:09;2.27;;;2.07;;
4517;SDS011;2271;49.464;11.070;2023-11-19T01:28:36;2.70;;;2.50;;
4517;SDS011;2271;49.464;11.070;2023-11-19T01:31:01;2.53;;;2.33;;
4517;SDS011;2271;49.464;11.070;2023-11-19T01:33:28;2.27;;;2.00;;
4517;SDS011;2271;49.464;11.070;2023-11-19T01:35:54;2.30;;;2.10;;
4517;SDS011;2271;49.464;11.070;2023-11-19T01:38:21;2.93;;;2.60;;
4517;SDS011;2271;49.464;11.070;2023-11-19T01:40:46;3.20;;;2.90;;
4517;SDS011;2271;49.464;11.070;2023-11-19T01:43:12;2.57;;;2.33;;
4517;SDS011;2271;49.464;11.070;2023-11-19T01:45:55;2.07;;;1.87;;
4517;SDS011;2271;49.464;11.070;2023-11-19T01:48:21;2.40;;;2.20;;
4517;SDS011;2271;49.464;11.070;2023-11-19T01:50:47;2.50;;;2.30;;
4517;SDS011;2271;49.464;11.070;2023-11-19T01:53:13;2.73;;;2.50;;
4517;SDS011;2271;49.464;11.070;2023-11-19T01:55:39;3.53;;;2.10;;
4517;SDS011;2271;49.464;11.070;2023-11-19T01:58:05;3.80;;;2.27;;
4517;SDS011;2271;49.464;11.070;2023-11-19T02:00:32;2.63;;;2.43;;
4517;SDS011;2271;49.464;11.070;2023-11-19T02:02:58;3.47;;;2.70;;
4517;SDS011;2271;49.464;11.070;2023-11-19T02:05:24;2.50;;;2.30;;
4517;SDS011;2271;49.464;11.070;2023-11-19T02:07:50;3.13;;;2.83;;
4517;SDS011;2271;49.464;11.070;2023-11-19T02:10:16;2.30;;;2.10;;
4517;SDS011;2271;49.464;11.070;2023-11-19T02:12:44;2.67;;;2.47;;
4517;SDS011;2271;49.464;11.070;2023-11-19T02:15:10;3.10;;;2.80;;
4517;SDS011;2271;49.464;11.070;2023-11-19T02:17:37;2.60;;;2.40;;
4517;SDS011;2271;49.464;11.070;2023-11-19T02:20:03;2.73;;;2.53;;
4517;SDS011;2271;49.464;11.070;2023-11-19T02:22:34;2.97;;;2.70;;
4517;SDS011;2271;49.464;11.070;2023-11-19T02:25:00;2.97;;;2.77;;
4517;SDS011;2271;49.464;11.070;2023-11-19T02:30:13;3.40;;;3.10;;
4517;SDS011;2271;49.464;11.070;2023-11-19T02:32:40;3.57;;;3.03;;
4517;SDS011;2271;49.464;11.070;2023-11-19T02:35:07;3.37;;;2.53;;
4517;SDS011;2271;49.464;11.070;2023-11-19T02:37:36;3.40;;;2.70;;
4517;SDS011;2271;49.464;11.070;2023-11-19T02:40:04;3.03;;;2.83;;
4517;SDS011;2271;49.464;11.070;2023-11-19T02:42:30;2.90;;;2.70;;
4517;SDS011;2271;49.464;11.070;2023-11-19T02:44:56;3.50;;;3.20;;
4517;SDS011;2271;49.464;11.070;2023-11-19T02:47:22;2.70;;;2.50;;
4517;SDS011;2271;49.464;11.070;2023-11-19T02:49:49;3.40;;;3.10;;
4517;SDS011;2271;49.464;11.070;2023-11-19T02:52:15;2.70;;;2.50;;
4517;SDS011;2271;49.464;11.070;2023-11-19T02:54:40;4.17;;;2.97;;
4517;SDS011;2271;49.464;11.070;2023-11-19T02:57:07;3.43;;;3.13;;
4517;SDS011;2271;49.464;11.070;2023-11-19T02:59:35;4.63;;;3.53;;
4517;SDS011;2271;49.464;11.070;2023-11-19T03:02:03;3.53;;;3.23;;
4517;SDS011;2271;49.464;11.070;2023-11-19T03:04:31;3.87;;;3.03;;
4517;SDS011;2271;49.464;11.070;2023-11-19T03:07:00;4.63;;;3.00;;
4517;SDS011;2271;49.464;11.070;2023-11-19T03:09:26;4.00;;;3.13;;
4517;SDS011;2271;49.464;11.070;2023-11-19T03:11:51;3.67;;;3.27;;
4517;SDS011;2271;49.464;11.070;2023-11-19T03:14:17;5.00;;;3.80;;
4517;SDS011;2271;49.464;11.070;2023-11-19T03:16:46;3.77;;;3.27;;
4517;SDS011;2271;49.464;11.070;2023-11-19T03:19:11;3.80;;;3.50;;
4517;SDS011;2271;49.464;11.070;2023-11-19T03:21:37;4.50;;;3.70;;
4517;SDS011;2271;49.464;11.070;2023-11-19T03:24:03;3.83;;;3.43;;
4517;SDS011;2271;49.464;11.070;2023-11-19T03:26:28;4.60;;;3.87;;
4517;SDS011;2271;49.464;11.070;2023-11-19T03:28:54;3.57;;;3.10;;
4517;SDS011;2271;49.464;11.070;2023-11-19T03:31:22;3.47;;;3.17;;
4517;SDS011;2271;49.464;11.070;2023-11-19T03:33:47;4.87;;;3.30;;
4517;SDS011;2271;49.464;11.070;2023-11-19T03:36:13;3.83;;;3.43;;
4517;SDS011;2271;49.464;11.070;2023-11-19T03:38:39;4.00;;;3.03;;
4517;SDS011;2271;49.464;11.070;2023-11-19T03:41:11;3.60;;;3.13;;
4517;SDS011;2271;49.464;11.070;2023-11-19T03:43:37;3.83;;;3.40;;
4517;SDS011;2271;49.464;11.070;2023-11-19T03:46:03;3.83;;;3.37;;
4517;SDS011;2271;49.464;11.070;2023-11-19T03:48:30;4.10;;;3.70;;
4517;SDS011;2271;49.464;11.070;2023-11-19T03:50:56;4.33;;;3.93;;
4517;SDS011;2271;49.464;11.070;2023-11-19T03:53:21;4.53;;;3.67;;
4517;SDS011;2271;49.464;11.070;2023-11-19T03:55:49;3.83;;;3.43;;
4517;SDS011;2271;49.464;11.070;2023-11-19T03:58:15;4.07;;;3.70;;
4517;SDS011;2271;49.464;11.070;2023-11-19T04:00:40;4.77;;;3.63;;
4517;SDS011;2271;49.464;11.070;2023-11-19T04:03:06;4.30;;;3.90;;
4517;SDS011;2271;49.464;11.070;2023-11-19T04:05:31;6.77;;;4.83;;
4517;SDS011;2271;49.464;11.070;2023-11-19T04:07:57;4.17;;;3.77;;
4517;SDS011;2271;49.464;11.070;2023-11-19T04:10:23;5.27;;;4.57;;
4517;SDS011;2271;49.464;11.070;2023-11-19T04:12:49;5.00;;;4.50;;
4517;SDS011;2271;49.464;11.070;2023-11-19T04:15:14;5.67;;;4.57;;
4517;SDS011;2271;49.464;11.070;2023-11-19T04:17:40;5.53;;;4.90;;
4517;SDS011;2271;49.464;11.070;2023-11-19T04:20:06;5.80;;;4.80;;
4517;SDS011;2271;49.464;11.070;2023-11-19T04:22:38;6.50;;;5.07;;
4517;SDS011;2271;49.464;11.070;2023-11-19T04:25:03;5.37;;;4.70;;
4517;SDS011;2271;49.464;11.070;2023-11-19T04:27:29;5.57;;;4.47;;
4517;SDS011;2271;49.464;11.070;2023-11-19T04:29:55;5.20;;;4.70;;
4517;SDS011;2271;49.464;11.070;2023-11-19T04:32:21;6.07;;;4.50;;
4517;SDS011;2271;49.464;11.070;2023-11-19T04:34:46;6.07;;;4.80;;
4517;SDS011;2271;49.464;11.070;2023-11-19T04:37:12;6.23;;;5.30;;
4517;SDS011;2271;49.464;11.070;2023-11-19T04:39:38;4.40;;;3.97;;
4517;SDS011;2271;49.464;11.070;2023-11-19T04:42:03;4.57;;;4.13;;
4517;SDS011;2271;49.464;11.070;2023-11-19T04:44:31;5.70;;;4.77;;
4517;SDS011;2271;49.464;11.070;2023-11-19T04:46:57;5.30;;;4.80;;
4517;SDS011;2271;49.464;11.070;2023-11-19T04:49:23;5.73;;;4.77;;
4517;SDS011;2271;49.464;11.070;2023-11-19T04:51:49;6.17;;;5.43;;
4517;SDS011;2271;49.464;11.070;2023-11-19T04:54:16;5.70;;;5.00;;
4517;SDS011;2271;49.464;11.070;2023-11-19T04:56:44;5.10;;;4.53;;
4517;SDS011;2271;49.464;11.070;2023-11-19T04:59:11;6.03;;;5.43;;
4517;SDS011;2271;49.464;11.070;2023-11-19T05:01:36;5.83;;;4.70;;
4517;SDS011;2271;49.464;11.070;2023-11-19T05:04:02;4.87;;;4.37;;
4517;SDS011;2271;49.464;11.070;2023-11-19T05:06:28;6.00;;;4.70;;
4517;SDS011;2271;49.464;11.070;2023-11-19T05:08:55;5.27;;;4.57;;
4517;SDS011;2271;49.464;11.070;2023-11-19T05:11:21;5.07;;;4.40;;
4517;SDS011;2271;49.464;11.070;2023-11-19T05:13:47;4.90;;;4.37;;
4517;SDS011;2271;49.464;11.070;2023-11-19T05:16:12;7.13;;;5.03;;
4517;SDS011;2271;49.464;11.070;2023-11-19T05:18:42;5.83;;;4.43;;
4517;SDS011;2271;49.464;11.070;2023-11-19T05:21:08;5.90;;;4.83;;
4517;SDS011;2271;49.464;11.070;2023-11-19T05:23:34;5.20;;;4.67;;
4517;SDS011;2271;49.464;11.070;2023-11-19T05:26:03;5.33;;;4.83;;
4517;SDS011;2271;49.464;11.070;2023-11-19T05:28:29;4.67;;;4.17;;
4517;SDS011;2271;49.464;11.070;2023-11-19T05:30:54;4.53;;;4.13;;
4517;SDS011;2271;49.464;11.070;2023-11-19T05:33:21;6.43;;;5.40;;
4517;SDS011;2271;49.464;11.070;2023-11-19T05:35:46;5.63;;;4.80;;
4517;SDS011;2271;49.464;11.070;2023-11-19T05:38:12;4.73;;;4.33;;
4517;SDS011;2271;49.464;11.070;2023-11-19T05:40:38;7.30;;;4.43;;
4517;SDS011;2271;49.464;11.070;2023-11-19T05:43:04;6.20;;;4.80;;
4517;SDS011;2271;49.464;11.070;2023-11-19T05:45:30;6.50;;;5.47;;
4517;SDS011;2271;49.464;11.070;2023-11-19T05:47:57;5.43;;;4.93;;
4517;SDS011;2271;49.464;11.070;2023-11-19T05:50:22;5.70;;;4.90;;
4517;SDS011;2271;49.464;11.070;2023-11-19T05:52:48;4.70;;;4.20;;
4517;SDS011;2271;49.464;11.070;2023-11-19T05:55:14;5.63;;;4.70;;
4517;SDS011;2271;49.464;11.070;2023-11-19T05:57:40;5.67;;;5.03;;
4517;SDS011;2271;49.464;11.070;2023-11-19T06:00:06;5.87;;;5.20;;
4517;SDS011;2271;49.464;11.070;2023-11-19T06:02:33;5.43;;;4.80;;
4517;SDS011;2271;49.464;11.070;2023-11-19T06:04:59;4.23;;;3.77;;
4517;SDS011;2271;49.464;11.070;2023-11-19T06:07:26;4.43;;;4.03;;
4517;SDS011;2271;49.464;11.070;2023-11-19T06:09:52;5.37;;;4.63;;
4517;SDS011;2271;49.464;11.070;2023-11-19T06:12:18;5.77;;;4.13;;
4517;SDS011;2271;49.464;11.070;2023-11-19T06:14:43;5.47;;;4.40;;
4517;SDS011;2271;49.464;11.070;2023-11-19T06:17:09;4.93;;;4.40;;
4517;SDS011;2271;49.464;11.070;2023-11-19T06:19:36;5.43;;;4.70;;
4517;SDS011;2271;49.464;11.070;2023-11-19T06:22:03;5.03;;;4.53;;
4517;SDS011;2271;49.464;11.070;2023-11-19T06:24:28;4.80;;;4.33;;
4517;SDS011;2271;49.464;11.070;2023-11-19T06:26:54;4.53;;;3.93;;
4517;SDS011;2271;49.464;11.070;2023-11-19T06:29:20;4.37;;;3.60;;
4517;SDS011;2271;49.464;11.070;2023-11-19T06:31:46;4.97;;;4.33;;
4517;SDS011;2271;49.464;11.070;2023-11-19T06:34:13;4.93;;;4.10;;
4517;SDS011;2271;49.464;11.070;2023-11-19T06:36:39;5.80;;;4.60;;
4517;SDS011;2271;49.464;11.070;2023-11-19T06:39:05;4.97;;;4.03;;
4517;SDS011;2271;49.464;11.070;2023-11-19T06:41:30;4.53;;;4.13;;
4517;SDS011;2271;49.464;11.070;2023-11-19T06:43:56;5.03;;;4.00;;
4517;SDS011;2271;49.464;11.070;2023-11-19T06:46:22;3.73;;;3.17;;
4517;SDS011;2271;49.464;11.070;2023-11-19T06:48:48;4.17;;;3.57;;
4517;SDS011;2271;49.464;11.070;2023-11-19T06:51:13;4.20;;;3.57;;
4517;SDS011;2271;49.464;11.070;2023-11-19T06:53:39;4.10;;;3.70;;
4517;SDS011;2271;49.464;11.070;2023-11-19T06:56:06;5.77;;;4.20;;
4517;SDS011;2271;49.464;11.070;2023-11-19T06:58:42;6.80;;;3.80;;
4517;SDS011;2271;49.464;11.070;2023-11-19T07:01:07;3.87;;;3.50;;
4517;SDS011;2271;49.464;11.070;2023-11-19T07:03:34;4.20;;;3.80;;
4517;SDS011;2271;49.464;11.070;2023-11-19T07:06:00;14.23;;;3.80;;
4517;SDS011;2271;49.464;11.070;2023-11-19T07:08:26;3.70;;;3.00;;
4517;SDS011;2271;49.464;11.070;2023-11-19T07:10:51;5.40;;;3.27;;
4517;SDS011;2271;49.464;11.070;2023-11-19T07:13:18;3.97;;;3.00;;
4517;SDS011;2271;49.464;11.070;2023-11-19T07:15:44;3.20;;;2.90;;
4517;SDS011;2271;49.464;11.070;2023-11-19T07:18:10;3.77;;;3.30;;
4517;SDS011;2271;49.464;11.070;2023-11-19T07:20:36;3.93;;;3.20;;
4517;SDS011;2271;49.464;11.070;2023-11-19T07:23:03;3.00;;;2.70;;
4517;SDS011;2271;49.464;11.070;2023-11-19T07:25:29;2.53;;;2.20;;
4517;SDS011;2271;49.464;11.070;2023-11-19T07:27:54;5.03;;;2.60;;
4517;SDS011;2271;49.464;11.070;2023-11-19T07:30:22;4.33;;;2.40;;
4517;SDS011;2271;49.464;11.070;2023-11-19T07:32:47;4.07;;;3.10;;
4517;SDS011;2271;49.464;11.070;2023-11-19T07:35:13;3.93;;;2.83;;
4517;SDS011;2271;49.464;11.070;2023-11-19T07:37:40;5.20;;;3.23;;
4517;SDS011;2271;49.464;11.070;2023-11-19T07:40:07;4.67;;;3.13;;
4517;SDS011;2271;49.464;11.070;2023-11-19T07:42:33;4.43;;;2.97;;
4517;SDS011;2271;49.464;11.070;2023-11-19T07:44:59;3.73;;;2.47;;
4517;SDS011;2271;49.464;11.070;2023-11-19T07:47:24;3.47;;;2.13;;
4517;SDS011;2271;49.464;11.070;2023-11-19T07:49:50;4.20;;;2.93;;
4517;SDS011;2271;49.464;11.070;2023-11-19T07:52:16;3.93;;;2.87;;
4517;SDS011;2271;49.464;11.070;2023-11-19T07:54:42;4.73;;;2.90;;
4517;SDS011;2271;49.464;11.070;2023-11-19T07:57:07;4.90;;;2.83;;
4517;SDS011;2271;49.464;11.070;2023-11-19T07:59:33;3.37;;;2.93;;
4517;SDS011;2271;49.464;11.070;2023-11-19T08:01:58;2.90;;;2.60;;
4517;SDS011;2271;49.464;11.070;2023-11-19T08:04:24;4.47;;;2.93;;
4517;SDS011;2271;49.464;11.070;2023-11-19T08:06:50;4.50;;;2.83;;
4517;SDS011;2271;49.464;11.070;2023-11-19T08:09:16;3.87;;;2.60;;
4517;SDS011;2271;49.464;11.070;2023-11-19T08:11:42;2.57;;;2.37;;
4517;SDS011;2271;49.464;11.070;2023-11-19T08:14:08;2.30;;;1.70;;
4517;SDS011;2271;49.464;11.070;2023-11-19T08:16:34;2.10;;;1.70;;
4517;SDS011;2271;49.464;11.070;2023-11-19T08:19:01;1.37;;;1.20;;
4517;SDS011;2271;49.464;11.070;2023-11-19T08:21:28;1.57;;;1.23;;
4517;SDS011;2271;49.464;11.070;2023-11-19T08:23:54;1.43;;;1.27;;
4517;SDS011;2271;49.464;11.070;2023-11-19T08:26:19;0.80;;;0.80;;
4517;SDS011;2271;49.464;11.070;2023-11-19T08:28:45;1.23;;;0.90;;
4517;SDS011;2271;49.464;11.070;2023-11-19T08:31:11;0.70;;;0.60;;
4517;SDS011;2271;49.464;11.070;2023-11-19T08:33:36;0.83;;;0.70;;
4517;SDS011;2271;49.464;11.070;2023-11-19T08:36:02;1.67;;;1.00;;
4517;SDS011;2271;49.464;11.070;2023-11-19T08:38:29;0.70;;;0.70;;
4517;SDS011;2271;49.464;11.070;2023-11-19T08:40:54;1.00;;;0.90;;
4517;SDS011;2271;49.464;11.070;2023-11-19T08:43:24;0.73;;;0.73;;
4517;SDS011;2271;49.464;11.070;2023-11-19T08:45:50;1.10;;;0.87;;
4517;SDS011;2271;49.464;11.070;2023-11-19T08:48:16;1.37;;;1.03;;
4517;SDS011;2271;49.464;11.070;2023-11-19T08:50:42;1.27;;;0.97;;
4517;SDS011;2271;49.464;11.070;2023-11-19T08:53:07;0.93;;;0.93;;
4517;SDS011;2271;49.464;11.070;2023-11-19T08:55:33;1.73;;;1.10;;
4517;SDS011;2271;49.464;11.070;2023-11-19T08:57:58;0.70;;;0.60;;
4517;SDS011;2271;49.464;11.070;2023-11-19T09:00:24;1.93;;;0.70;;
4517;SDS011;2271;49.464;11.070;2023-11-19T09:02:50;1.03;;;0.70;;
4517;SDS011;2271;49.464;11.070;2023-11-19T09:05:15;2.87;;;1.00;;
4517;SDS011;2271;49.464;11.070;2023-11-19T09:07:41;3.03;;;0.83;;
4517;SDS011;2271;49.464;11.070;2023-11-19T09:10:06;0.93;;;0.90;;
4517;SDS011;2271;49.464;11.070;2023-11-19T09:12:33;1.90;;;0.70;;
4517;SDS011;2271;49.464;11.070;2023-11-19T09:15:00;0.80;;;0.80;;
4517;SDS011;2271;49.464;11.070;2023-11-19T09:17:25;0.77;;;0.67;;
4517;SDS011;2271;49.464;11.070;2023-11-19T09:19:51;0.80;;;0.80;;
4517;SDS011;2271;49.464;11.070;2023-11-19T09:22:16;1.10;;;1.00;;
4517;SDS011;2271;49.464;11.070;2023-11-19T09:24:42;1.60;;;0.93;;
4517;SDS011;2271;49.464;11.070;2023-11-19T09:27:09;1.07;;;0.80;;
4517;SDS011;2271;49.464;11.070;2023-11-19T09:29:35;2.70;;;0.80;;
4517;SDS011;2271;49.464;11.070;2023-11-19T09:32:01;3.55;;;0.90;;
4517;SDS011;2271;49.464;11.070;2023-11-19T09:34:27;1.25;;;0.80;;
4517;SDS011;2271;49.464;11.070;2023-11-19T09:36:53;0.60;;;0.55;;
4517;SDS011;2271;49.464;11.070;2023-11-19T09:39:18;3.70;;;0.90;;
4517;SDS011;2271;49.464;11.070;2023-11-19T09:41:45;1.90;;;0.70;;
4517;SDS011;2271;49.464;11.070;2023-11-19T09:44:11;1.63;;;0.80;;
4517;SDS011;2271;49.464;11.070;2023-11-19T09:46:38;0.88;;;0.60;;
4517;SDS011;2271;49.464;11.070;2023-11-19T09:49:06;0.90;;;0.60;;
4517;SDS011;2271;49.464;11.070;2023-11-19T09:51:33;1.27;;;0.80;;
4517;SDS011;2271;49.464;11.070;2023-11-19T09:54:00;3.78;;;0.80;;
4517;SDS011;2271;49.464;11.070;2023-11-19T09:56:26;0.80;;;0.73;;
4517;SDS011;2271;49.464;11.070;2023-11-19T09:58:54;2.10;;;0.70;;
4517;SDS011;2271;49.464;11.070;2023-11-19T10:01:20;1.48;;;0.85;;
4517;SDS011;2271;49.464;11.070;2023-11-19T10:03:46;1.50;;;0.80;;
4517;SDS011;2271;49.464;11.070;2023-11-19T10:06:14;1.75;;;0.85;;
4517;SDS011;2271;49.464;11.070;2023-11-19T10:08:41;1.70;;;0.70;;
4517;SDS011;2271;49.464;11.070;2023-11-19T10:11:08;1.77;;;0.90;;
4517;SDS011;2271;49.464;11.070;2023-11-19T10:13:36;1.20;;;0.70;;
4517;SDS011;2271;49.464;11.070;2023-11-19T10:16:07;1.08;;;0.80;;
4517;SDS011;2271;49.464;11.070;2023-11-19T10:18:34;1.23;;;0.90;;
4517;SDS011;2271;49.464;11.070;2023-11-19T10:21:04;3.33;;;0.90;;
4517;SDS011;2271;49.464;11.070;2023-11-19T10:23:30;4.13;;;1.80;;
4517;SDS011;2271;49.464;11.070;2023-11-19T10:26:02;2.67;;;0.70;;
4517;SDS011;2271;49.464;11.070;2023-11-19T10:28:37;2.05;;;1.20;;
4517;SDS011;2271;49.464;11.070;2023-11-19T10:31:04;0.77;;;0.70;;
4517;SDS011;2271;49.464;11.070;2023-11-19T10:33:30;3.90;;;0.93;;
4517;SDS011;2271;49.464;11.070;2023-11-19T10:35:56;2.70;;;1.08;;
4517;SDS011;2271;49.464;11.070;2023-11-19T10:38:23;1.42;;;0.80;;
4517;SDS011;2271;49.464;11.070;2023-11-19T10:40:49;2.33;;;0.90;;
4517;SDS011;2271;49.464;11.070;2023-11-19T10:43:16;2.05;;;0.90;;
4517;SDS011;2271;49.464;11.070;2023-11-19T10:45:42;2.25;;;0.60;;
4517;SDS011;2271;49.464;11.070;2023-11-19T10:48:09;2.53;;;0.70;;
4517;SDS011;2271;49.464;11.070;2023-11-19T10:50:37;0.63;;;0.43;;
4517;SDS011;2271;49.464;11.070;2023-11-19T10:53:08;1.30;;;0.90;;
4517;SDS011;2271;49.464;11.070;2023-11-19T10:55:36;3.83;;;0.70;;
4517;SDS011;2271;49.464;11.070;2023-11-19T10:58:06;2.75;;;0.70;;
4517;SDS011;2271;49.464;11.070;2023-11-19T11:00:34;0.40;;;0.40;;
4517;SDS011;2271;49.464;11.070;2023-11-19T11:03:24;0.75;;;0.65;;
4517;SDS011;2271;49.464;11.070;2023-11-19T11:05:51;1.35;;;0.73;;
4517;SDS011;2271;49.464;11.070;2023-11-19T11:08:18;1.30;;;0.90;;
4517;SDS011;2271;49.464;11.070;2023-11-19T11:10:47;0.50;;;0.50;;
4517;SDS011;2271;49.464;11.070;2023-11-19T11:13:26;2.22;;;0.82;;
4517;SDS011;2271;49.464;11.070;2023-11-19T11:15:55;4.32;;;0.90;;
4517;SDS011;2271;49.464;11.070;2023-11-19T11:18:23;1.10;;;0.75;;
4517;SDS011;2271;49.464;11.070;2023-11-19T11:20:54;1.58;;;0.85;;
4517;SDS011;2271;49.464;11.070;2023-11-19T11:26:35;4.95;;;0.77;;
4517;SDS011;2271;49.464;11.070;2023-11-19T11:29:35;1.73;;;1.30;;
4517;SDS011;2271;49.464;11.070;2023-11-19T11:32:13;2.97;;;1.20;;
4517;SDS011;2271;49.464;11.070;2023-11-19T11:34:52;3.08;;;0.82;;
4517;SDS011;2271;49.464;11.070;2023-11-19T11:37:37;2.65;;;0.90;;
4517;SDS011;2271;49.464;11.070;2023-11-19T11:40:14;2.50;;;0.90;;
4517;SDS011;2271;49.464;11.070;2023-11-19T11:42:41;0.88;;;0.65;;
4517;SDS011;2271;49.464;11.070;2023-11-19T11:45:07;2.88;;;0.95;;
4517;SDS011;2271;49.464;11.070;2023-11-19T11:50:16;3.80;;;0.90;;
4517;SDS011;2271;49.464;11.070;2023-11-19T11:55:26;2.58;;;0.82;;
4517;SDS011;2271;49.464;11.070;2023-11-19T11:57:53;2.50;;;0.75;;
4517;SDS011;2271;49.464;11.070;2023-11-19T12:00:23;5.72;;;1.55;;
4517;SDS011;2271;49.464;11.070;2023-11-19T12:02:55;1.92;;;0.80;;
4517;SDS011;2271;49.464;11.070;2023-11-19T12:05:22;1.92;;;0.82;;
4517;SDS011;2271;49.464;11.070;2023-11-19T12:08:00;3.17;;;2.88;;
4517;SDS011;2271;49.464;11.070;2023-11-19T12:10:29;2.83;;;0.70;;
4517;SDS011;2271;49.464;11.070;2023-11-19T12:13:00;2.17;;;1.23;;
4517;SDS011;2271;49.464;11.070;2023-11-19T12:15:26;3.78;;;1.38;;
4517;SDS011;2271;49.464;11.070;2023-11-19T12:17:53;2.30;;;0.90;;
4517;SDS011;2271;49.464;11.070;2023-11-19T12:20:23;8.77;;;1.55;;
4517;SDS011;2271;49.464;11.070;2023-11-19T12:22:50;2.53;;;0.95;;
4517;SDS011;2271;49.464;11.070;2023-11-19T12:25:16;2.05;;;0.95;;
4517;SDS011;2271;49.464;11.070;2023-11-19T12:27:43;2.40;;;0.90;;
4517;SDS011;2271;49.464;11.070;2023-11-19T12:30:16;1.42;;;1.20;;
4517;SDS011;2271;49.464;11.070;2023-11-19T12:32:43;2.30;;;1.00;;
4517;SDS011;2271;49.464;11.070;2023-11-19T12:35:10;6.20;;;1.13;;
4517;SDS011;2271;49.464;11.070;2023-11-19T12:40:15;2.00;;;1.00;;
4517;SDS011;2271;49.464;11.070;2023-11-19T12:42:43;1.83;;;1.23;;
4517;SDS011;2271;49.464;11.070;2023-11-19T12:45:12;3.85;;;1.17;;
4517;SDS011;2271;49.464;11.070;2023-11-19T12:47:39;1.63;;;0.90;;
4517;SDS011;2271;49.464;11.070;2023-11-19T12:50:06;0.98;;;0.73;;
4517;SDS011;2271;49.464;11.070;2023-11-19T12:52:33;2.08;;;0.80;;
4517;SDS011;2271;49.464;11.070;2023-11-19T12:54:59;1.67;;;0.88;;
4517;SDS011;2271;49.464;11.070;2023-11-19T12:57:39;1.10;;;0.60;;
4517;SDS011;2271;49.464;11.070;2023-11-19T13:00:05;2.78;;;0.93;;
4517;SDS011;2271;49.464;11.070;2023-11-19T13:02:44;4.53;;;1.27;;
4517;SDS011;2271;49.464;11.070;2023-11-19T13:07:47;4.05;;;0.60;;
4517;SDS011;2271;49.464;11.070;2023-11-19T13:10:12;1.35;;;0.80;;
4517;SDS011;2271;49.464;11.070;2023-11-19T13:12:38;1.83;;;1.00;;
4517;SDS011;2271;49.464;11.070;2023-11-19T13:15:04;1.90;;;0.52;;
4517;SDS011;2271;49.464;11.070;2023-11-19T13:17:30;3.85;;;0.80;;
4517;SDS011;2271;49.464;11.070;2023-11-19T13:19:56;3.03;;;0.82;;
4517;SDS011;2271;49.464;11.070;2023-11-19T13:22:22;3.03;;;1.05;;
4517;SDS011;2271;49.464;11.070;2023-11-19T13:24:48;1.08;;;0.75;;
4517;SDS011;2271;49.464;11.070;2023-11-19T13:27:13;0.82;;;0.55;;
4517;SDS011;2271;49.464;11.070;2023-11-19T13:29:39;2.25;;;0.85;;
4517;SDS011;2271;49.464;11.070;2023-11-19T13:32:05;2.17;;;1.13;;
4517;SDS011;2271;49.464;11.070;2023-11-19T13:34:30;2.15;;;0.93;;
4517;SDS011;2271;49.464;11.070;2023-11-19T13:36:56;1.75;;;0.60;;
4517;SDS011;2271;49.464;11.070;2023-11-19T13:39:22;0.65;;;0.65;;
4517;SDS011;2271;49.464;11.070;2023-11-19T13:41:49;2.60;;;0.80;;
4517;SDS011;2271;49.464;11.070;2023-11-19T13:44:15;2.08;;;0.95;;
4517;SDS011;2271;49.464;11.070;2023-11-19T13:46:44;1.02;;;0.50;;
4517;SDS011;2271;49.464;11.070;2023-11-19T13:49:11;1.20;;;0.60;;
4517;SDS011;2271;49.464;11.070;2023-11-19T13:51:38;1.33;;;0.90;;
4517;SDS011;2271;49.464;11.070;2023-11-19T13:54:03;0.70;;;0.70;;
4517;SDS011;2271;49.464;11.070;2023-11-19T13:56:29;0.93;;;0.73;;
4517;SDS011;2271;49.464;11.070;2023-11-19T13:58:55;1.52;;;0.75;;
4517;SDS011;2271;49.464;11.070;2023-11-19T14:01:20;0.70;;;0.70;;
4517;SDS011;2271;49.464;11.070;2023-11-19T14:03:46;1.60;;;0.90;;
4517;SDS011;2271;49.464;11.070;2023-11-19T14:06:11;4.35;;;0.80;;
4517;SDS011;2271;49.464;11.070;2023-11-19T14:08:37;1.73;;;0.80;;
4517;SDS011;2271;49.464;11.070;2023-11-19T14:11:03;2.50;;;0.70;;
4517;SDS011;2271;49.464;11.070;2023-11-19T14:13:30;2.13;;;0.63;;
4517;SDS011;2271;49.464;11.070;2023-11-19T14:15:56;2.10;;;0.70;;
4517;SDS011;2271;49.464;11.070;2023-11-19T14:18:21;0.75;;;0.73;;
4517;SDS011;2271;49.464;11.070;2023-11-19T14:20:48;15.45;;;4.75;;
4517;SDS011;2271;49.464;11.070;2023-11-19T14:23:13;2.75;;;1.73;;
4517;SDS011;2271;49.464;11.070;2023-11-19T14:25:39;4.07;;;1.10;;
4517;SDS011;2271;49.464;11.070;2023-11-19T14:28:04;1.75;;;0.80;;
4517;SDS011;2271;49.464;11.070;2023-11-19T14:30:30;3.65;;;1.10;;
4517;SDS011;2271;49.464;11.070;2023-11-19T14:32:56;1.67;;;0.85;;
4517;SDS011;2271;49.464;11.070;2023-11-19T14:35:21;2.10;;;0.80;;
4517;SDS011;2271;49.464;11.070;2023-11-19T14:37:47;1.27;;;0.85;;
4517;SDS011;2271;49.464;11.070;2023-11-19T14:40:14;2.03;;;0.68;;
4517;SDS011;2271;49.464;11.070;2023-11-19T14:42:39;1.60;;;0.73;;
4517;SDS011;2271;49.464;11.070;2023-11-19T14:45:05;3.45;;;0.90;;
4517;SDS011;2271;49.464;11.070;2023-11-19T14:47:32;5.72;;;0.90;;
4517;SDS011;2271;49.464;11.070;2023-11-19T14:49:57;0.88;;;0.60;;
4517;SDS011;2271;49.464;11.070;2023-11-19T14:52:23;3.53;;;0.77;;
4517;SDS011;2271;49.464;11.070;2023-11-19T14:54:49;1.33;;;0.68;;
4517;SDS011;2271;49.464;11.070;2023-11-19T14:57:16;3.25;;;0.73;;
4517;SDS011;2271;49.464;11.070;2023-11-19T14:59:42;1.52;;;0.68;;
4517;SDS011;2271;49.464;11.070;2023-11-19T15:02:07;1.63;;;0.98;;
4517;SDS011;2271;49.464;11.070;2023-11-19T15:04:33;0.77;;;0.70;;
4517;SDS011;2271;49.464;11.070;2023-11-19T15:06:59;2.97;;;1.00;;
4517;SDS011;2271;49.464;11.070;2023-11-19T15:09:25;1.15;;;0.60;;
4517;SDS011;2271;49.464;11.070;2023-11-19T15:11:54;5.75;;;1.10;;
4517;SDS011;2271;49.464;11.070;2023-11-19T15:14:20;5.28;;;2.83;;